YYJ weather

Victoria International Airport
Victoria, British Columbia, Canada

Public forecast

Using degrees Celsius for public forecast. Weather courtesy of forecast.io.

Current aviation weather report (METAR) for Victoria International Airport

Retrieved 2019/10/21 03:00 UTC (43 minutes ago):

CYYJ 210300Z 27006KT 20SM FEW045 FEW060 SCT250 09/09 A2994 RMK SC1SC1CI3 SC TR SLP139

Aviation forecast (TAF) for Victoria International Airport

Retrieved 2019-10-21 00:42 UTC (3 hours ago):

TAF CYYJ 202338Z 2100/2124 16008KT P6SM SCT020 BKN240 TEMPO 2100/2104 BKN020 BECMG 2100/2101 24010G20KT FM210400 25008KT P6SM FEW030 BKN180 FM211000 22008KT P6SM SCT030 BKN120 FM211400 20010KT P6SM -RA SCT015 OVC050 FM211700 13012KT 2SM RA BR BKN006 OVC012 RMK NXT FCST BY 210600Z